createdAt,value
2019-06-01T00:00:10.809Z,23.65
2019-06-01T00:00:46.254Z,23.64
2019-06-01T00:01:30.520Z,23.64
2019-06-01T00:02:16.758Z,23.63
2019-06-01T00:03:00.130Z,23.64
2019-06-01T00:03:44.290Z,23.64
2019-06-01T00:04:27.825Z,23.64
2019-06-01T00:05:11.552Z,23.66
2019-06-01T00:05:54.354Z,23.65
2019-06-01T00:06:38.650Z,23.66
2019-06-01T00:07:21.900Z,23.66
2019-06-01T00:08:05.187Z,23.66
2019-06-01T00:08:49.283Z,23.65
2019-06-01T00:09:32.872Z,23.65
2019-06-01T00:10:16.226Z,23.65
2019-06-01T00:10:59.442Z,23.66
2019-06-01T00:11:43.335Z,23.65
2019-06-01T00:12:26.854Z,23.65
2019-06-01T00:13:10.521Z,23.64
2019-06-01T00:13:54.081Z,23.65
2019-06-01T00:14:37.568Z,23.65
2019-06-01T00:15:21.268Z,23.64
2019-06-01T00:16:05.255Z,23.64
2019-06-01T00:16:48.467Z,23.64
2019-06-01T00:17:32.146Z,23.64
2019-06-01T00:18:15.649Z,23.63
2019-06-01T00:18:58.779Z,23.64
2019-06-01T00:19:42.381Z,23.64
2019-06-01T00:20:25.777Z,23.64
2019-06-01T00:21:09.259Z,23.64
2019-06-01T00:21:52.610Z,23.63
2019-06-01T00:22:36.135Z,23.64
2019-06-01T00:23:19.847Z,23.63
2019-06-01T00:24:03.030Z,23.63
2019-06-01T00:24:46.418Z,23.64
2019-06-01T00:25:30.576Z,23.64
2019-06-01T00:26:14.258Z,23.65
2019-06-01T00:26:59.763Z,23.64
2019-06-01T00:27:42.919Z,23.65
2019-06-01T00:28:26.756Z,23.65
2019-06-01T00:29:10.114Z,23.64
2019-06-01T00:29:53.201Z,23.64
2019-06-01T00:30:36.763Z,23.63
2019-06-01T00:31:20.614Z,23.64
2019-06-01T00:32:03.594Z,23.63
2019-06-01T00:32:47.389Z,23.63
2019-06-01T00:33:31.107Z,23.63
2019-06-01T00:34:13.949Z,23.63
2019-06-01T00:34:57.513Z,23.63
2019-06-01T00:35:41.344Z,23.63
2019-06-01T00:36:24.841Z,23.63
2019-06-01T00:37:08.312Z,23.62
2019-06-01T00:37:53.524Z,23.62
2019-06-01T00:38:36.641Z,23.61
2019-06-01T00:39:21.251Z,23.61
2019-06-01T00:40:06.642Z,23.61
2019-06-01T00:40:54.713Z,23.61
2019-06-01T00:41:38.505Z,23.61
2019-06-01T00:42:24.250Z,23.60
2019-06-01T00:43:07.540Z,23.59
2019-06-01T00:43:52.496Z,23.58
2019-06-01T00:44:36.007Z,23.58
2019-06-01T00:45:20.155Z,23.58
2019-06-01T00:46:04.365Z,23.58
2019-06-01T00:46:48.746Z,23.57
2019-06-01T00:47:31.768Z,23.57
2019-06-01T00:48:15.661Z,23.57
2019-06-01T00:48:59.015Z,23.56
2019-06-01T00:49:42.711Z,23.57
2019-06-01T00:50:26.365Z,23.55
2019-06-01T00:51:09.881Z,23.56
2019-06-01T00:51:54.776Z,23.57
2019-06-01T00:52:40.592Z,23.57
2019-06-01T00:53:24.096Z,23.57
2019-06-01T00:54:07.716Z,23.57
2019-06-01T00:54:51.781Z,23.57
2019-06-01T00:55:35.233Z,23.57
2019-06-01T00:56:18.122Z,23.56
2019-06-01T00:57:01.839Z,23.55
2019-06-01T00:57:45.713Z,23.56
2019-06-01T00:58:28.884Z,23.55
2019-06-01T00:59:12.569Z,23.55
2019-06-01T00:59:56.326Z,23.56
2019-06-01T01:00:43.566Z,23.55
2019-06-01T01:01:26.615Z,23.55
2019-06-01T01:02:11.357Z,23.54
2019-06-01T01:02:55.862Z,23.55
2019-06-01T01:03:39.634Z,23.55
2019-06-01T01:04:23.240Z,23.54
2019-06-01T01:05:15.168Z,23.53
2019-06-01T01:05:59.226Z,23.53
2019-06-01T01:06:42.710Z,23.53
2019-06-01T01:07:25.748Z,23.53
2019-06-01T01:08:10.520Z,23.52
2019-06-01T01:08:55.449Z,23.52
2019-06-01T01:09:39.138Z,23.52
2019-06-01T01:10:22.644Z,23.51
2019-06-01T01:11:06.982Z,23.51
2019-06-01T01:11:51.651Z,23.51
2019-06-01T01:12:39.433Z,23.51
2019-06-01T01:13:24.063Z,23.51
2019-06-01T01:14:07.737Z,23.50
2019-06-01T01:14:51.333Z,23.51
2019-06-01T01:15:35.308Z,23.50
2019-06-01T01:16:21.056Z,23.50
2019-06-01T01:17:08.448Z,23.49
2019-06-01T01:17:53.898Z,23.50
2019-06-01T01:18:38.780Z,23.49
2019-06-01T01:19:24.112Z,23.49
2019-06-01T01:20:08.233Z,23.49
2019-06-01T01:20:52.556Z,23.47
2019-06-01T01:21:35.893Z,23.48
2019-06-01T01:22:19.644Z,23.48
2019-06-01T01:23:02.766Z,23.49
2019-06-01T01:23:50.307Z,23.48
2019-06-01T01:24:36.658Z,23.49
2019-06-01T01:25:18.591Z,23.47
2019-06-01T01:26:02.046Z,23.47
2019-06-01T01:26:46.379Z,23.49
2019-06-01T01:27:29.642Z,23.47
2019-06-01T01:28:15.096Z,23.47
2019-06-01T01:28:59.163Z,23.46
2019-06-01T01:29:44.334Z,23.46
2019-06-01T01:30:28.005Z,23.46
2019-06-01T01:31:14.063Z,23.46
2019-06-01T01:31:57.361Z,23.45
2019-06-01T01:32:40.347Z,23.46
2019-06-01T01:33:25.266Z,23.44
2019-06-01T01:34:08.563Z,23.46
2019-06-01T01:34:55.598Z,23.47
2019-06-01T01:35:40.700Z,23.48
2019-06-01T01:36:23.734Z,23.47
2019-06-01T01:37:06.952Z,23.48
2019-06-01T01:37:53.882Z,23.49
2019-06-01T01:38:36.453Z,23.48
2019-06-01T01:39:21.544Z,23.48
2019-06-01T01:40:06.228Z,23.47
2019-06-01T01:40:50.043Z,23.47
2019-06-01T01:41:33.646Z,23.46
2019-06-01T01:42:19.164Z,23.45
2019-06-01T01:43:05.912Z,23.44
2019-06-01T01:43:50.387Z,23.45
2019-06-01T01:44:34.216Z,23.46
2019-06-01T01:45:17.800Z,23.44
2019-06-01T01:46:01.244Z,23.43
2019-06-01T01:46:45.157Z,23.42
2019-06-01T01:47:28.482Z,23.42
2019-06-01T01:48:12.099Z,23.42
2019-06-01T01:48:56.726Z,23.42
2019-06-01T01:49:39.940Z,23.42
2019-06-01T01:50:28.447Z,23.41
2019-06-01T01:51:11.039Z,23.40
2019-06-01T01:51:55.434Z,23.40
2019-06-01T01:52:39.236Z,23.39
2019-06-01T01:53:25.390Z,23.39
2019-06-01T01:54:08.255Z,23.39
2019-06-01T01:54:52.800Z,23.40
2019-06-01T01:55:36.822Z,23.40
2019-06-01T01:56:20.302Z,23.40
2019-06-01T01:57:07.043Z,23.41
2019-06-01T01:57:51.196Z,23.41
2019-06-01T01:58:34.391Z,23.41
2019-06-01T01:59:20.843Z,23.40
2019-06-01T02:00:07.544Z,23.41
2019-06-01T02:00:52.946Z,23.40
2019-06-01T02:01:35.657Z,23.40
2019-06-01T02:02:19.726Z,23.41
2019-06-01T02:03:03.031Z,23.40
2019-06-01T02:03:46.413Z,23.40
2019-06-01T02:04:29.730Z,23.40
2019-06-01T02:05:14.338Z,23.39
2019-06-01T02:05:58.867Z,23.39
2019-06-01T02:06:42.921Z,23.39
2019-06-01T02:07:28.233Z,23.38
2019-06-01T02:08:14.396Z,23.39
2019-06-01T02:08:59.352Z,23.38
2019-06-01T02:09:42.678Z,23.38
2019-06-01T02:10:30.613Z,23.36
2019-06-01T02:11:16.684Z,23.36
2019-06-01T02:11:59.747Z,23.35
2019-06-01T02:12:43.438Z,23.36
2019-06-01T02:13:27.021Z,23.35
2019-06-01T02:14:10.379Z,23.35
2019-06-01T02:14:53.745Z,23.35
2019-06-01T02:15:38.693Z,23.34
2019-06-01T02:16:21.657Z,23.33
2019-06-01T02:17:06.669Z,23.34
2019-06-01T02:17:50.044Z,23.34
2019-06-01T02:18:33.153Z,23.35
2019-06-01T02:19:16.369Z,23.34
2019-06-01T02:20:00.290Z,23.34
2019-06-01T02:20:43.552Z,23.34
2019-06-01T02:21:27.087Z,23.34
2019-06-01T02:22:10.775Z,23.35
2019-06-01T02:22:54.880Z,23.34
2019-06-01T02:23:38.419Z,23.33
2019-06-01T02:24:22.391Z,23.34
2019-06-01T02:25:06.993Z,23.34
2019-06-01T02:25:50.341Z,23.33
2019-06-01T02:26:34.329Z,23.33
2019-06-01T02:27:19.527Z,23.33
2019-06-01T02:28:04.650Z,23.35
2019-06-01T02:28:47.845Z,23.34
2019-06-01T02:29:31.443Z,23.35
2019-06-01T02:30:19.471Z,23.34
2019-06-01T02:31:05.609Z,23.34
2019-06-01T02:31:51.384Z,23.34
2019-06-01T02:32:34.899Z,23.34
2019-06-01T02:33:18.465Z,23.34
2019-06-01T02:34:08.642Z,23.33
2019-06-01T02:34:51.818Z,23.33
2019-06-01T02:35:35.285Z,23.32
2019-06-01T02:36:18.443Z,23.32
2019-06-01T02:37:02.388Z,23.31
2019-06-01T02:37:46.292Z,23.31
2019-06-01T02:38:29.409Z,23.31
2019-06-01T02:39:20.256Z,23.30
2019-06-01T02:40:09.310Z,23.29
2019-06-01T02:40:57.115Z,23.29
2019-06-01T02:41:47.799Z,23.29
2019-06-01T02:42:31.197Z,23.29
2019-06-01T02:43:14.776Z,23.29
2019-06-01T02:43:59.141Z,23.30
2019-06-01T02:44:42.956Z,23.29
2019-06-01T02:45:32.031Z,23.30
2019-06-01T02:46:15.593Z,23.29
2019-06-01T02:46:59.658Z,23.28
2019-06-01T02:47:50.207Z,23.28
2019-06-01T02:48:36.288Z,23.28
2019-06-01T02:49:19.742Z,23.27
2019-06-01T02:50:04.487Z,23.26
2019-06-01T02:50:48.308Z,23.26
2019-06-01T02:51:36.629Z,23.26
2019-06-01T02:52:28.851Z,23.25
2019-06-01T02:53:17.415Z,23.24
2019-06-01T02:54:06.155Z,23.24
2019-06-01T02:54:55.644Z,23.23
2019-06-01T02:55:42.314Z,23.23
2019-06-01T02:56:25.945Z,23.23
2019-06-01T02:57:08.940Z,23.22
2019-06-01T02:57:52.761Z,23.22
2019-06-01T02:58:36.669Z,23.21
2019-06-01T02:59:19.939Z,23.22
2019-06-01T03:00:06.722Z,23.21
2019-06-01T03:01:07.044Z,23.20
2019-06-01T03:01:57.144Z,23.21
2019-06-01T03:02:35.923Z,23.20
2019-06-01T03:03:18.818Z,23.21
2019-06-01T03:04:03.413Z,23.22
2019-06-01T03:04:47.289Z,23.23
2019-06-01T03:05:30.474Z,23.22
2019-06-01T03:06:18.538Z,23.24
2019-06-01T03:07:06.734Z,23.23
2019-06-01T03:07:49.310Z,23.23
2019-06-01T03:08:32.762Z,23.24
2019-06-01T03:09:18.822Z,23.24
2019-06-01T03:10:03.133Z,23.24
2019-06-01T03:10:50.679Z,23.25
2019-06-01T03:11:39.494Z,23.25
2019-06-01T03:12:27.491Z,23.25
2019-06-01T03:13:12.764Z,23.25
2019-06-01T03:14:00.359Z,23.25
2019-06-01T03:14:43.596Z,23.25
2019-06-01T03:15:26.916Z,23.25
2019-06-01T03:16:11.331Z,23.25
2019-06-01T03:16:59.979Z,23.25
2019-06-01T03:17:49.288Z,23.26
2019-06-01T03:18:33.532Z,23.25
2019-06-01T03:19:25.063Z,23.25
2019-06-01T03:20:33.046Z,23.28
2019-06-01T03:21:18.895Z,23.24
2019-06-01T03:22:08.651Z,23.23
2019-06-01T03:22:57.330Z,23.23
2019-06-01T03:23:40.580Z,23.23
2019-06-01T03:24:26.298Z,23.22
2019-06-01T03:25:18.799Z,23.23
2019-06-01T03:26:02.049Z,23.22
2019-06-01T03:26:49.597Z,23.23
2019-06-01T03:27:38.660Z,23.22
2019-06-01T03:28:27.384Z,23.21
2019-06-01T03:29:13.032Z,23.20
2019-06-01T03:30:03.960Z,23.21
2019-06-01T03:30:46.607Z,23.19
2019-06-01T03:31:30.256Z,23.21
2019-06-01T03:32:34.215Z,23.20
2019-06-01T03:32:58.769Z,23.20
2019-06-01T03:33:46.599Z,23.20
2019-06-01T03:34:31.771Z,23.20
2019-06-01T03:35:17.592Z,23.19
2019-06-01T03:36:02.737Z,23.19
2019-06-01T03:36:46.263Z,23.18
2019-06-01T03:37:29.529Z,23.18
2019-06-01T03:38:20.770Z,23.18
2019-06-01T03:39:06.301Z,23.18
2019-06-01T03:39:56.306Z,23.19
2019-06-01T03:40:39.831Z,23.18
2019-06-01T03:41:23.277Z,23.18
2019-06-01T03:42:12.143Z,23.18
2019-06-01T03:43:00.060Z,23.18
2019-06-01T03:43:44.066Z,23.17
2019-06-01T03:44:26.930Z,23.17
2019-06-01T03:45:11.896Z,23.17
2019-06-01T03:45:56.559Z,23.18
2019-06-01T03:46:40.087Z,23.16
2019-06-01T03:47:27.104Z,23.16
2019-06-01T03:48:10.478Z,23.15
2019-06-01T03:48:53.603Z,23.15
2019-06-01T03:49:37.171Z,23.15
2019-06-01T03:50:23.624Z,23.14
2019-06-01T03:51:15.280Z,23.15
2019-06-01T03:51:58.915Z,23.14
2019-06-01T03:52:42.415Z,23.16
2019-06-01T03:53:25.350Z,23.15
2019-06-01T03:54:10.118Z,23.16
2019-06-01T03:54:53.730Z,23.16
2019-06-01T03:55:36.557Z,23.16
2019-06-01T03:56:19.810Z,23.16
2019-06-01T03:57:03.754Z,23.15
2019-06-01T03:57:46.871Z,23.15
2019-06-01T03:58:33.263Z,23.16
2019-06-01T03:59:17.021Z,23.15
2019-06-01T04:00:00.974Z,23.15
2019-06-01T04:00:44.520Z,23.14
2019-06-01T04:01:28.540Z,23.13
2019-06-01T04:02:11.284Z,23.14
2019-06-01T04:02:54.832Z,23.12
2019-06-01T04:03:44.463Z,23.12
2019-06-01T04:04:27.617Z,23.14
2019-06-01T04:05:11.458Z,23.12
2019-06-01T04:05:54.979Z,23.12
2019-06-01T04:06:39.836Z,23.12
2019-06-01T04:07:24.156Z,23.11
2019-06-01T04:08:15.182Z,23.11
2019-06-01T04:08:58.116Z,23.11
2019-06-01T04:09:41.613Z,23.10
2019-06-01T04:10:25.414Z,23.10
2019-06-01T04:11:14.489Z,23.10
2019-06-01T04:11:56.454Z,23.09
2019-06-01T04:12:43.509Z,23.10
2019-06-01T04:13:24.905Z,23.08
2019-06-01T04:14:15.306Z,23.09
2019-06-01T04:14:59.030Z,23.09
2019-06-01T04:15:42.364Z,23.10
2019-06-01T04:16:25.927Z,23.10
2019-06-01T04:17:10.213Z,23.10
2019-06-01T04:17:53.020Z,23.09
2019-06-01T04:18:36.288Z,23.09
2019-06-01T04:19:19.711Z,23.10
2019-06-01T04:20:10.253Z,23.10
2019-06-01T04:20:53.773Z,23.10
2019-06-01T04:21:44.654Z,23.11
2019-06-01T04:22:30.257Z,23.10
2019-06-01T04:23:13.864Z,23.12
2019-06-01T04:23:57.012Z,23.11
2019-06-01T04:24:40.151Z,23.11
2019-06-01T04:25:23.855Z,23.11
2019-06-01T04:26:08.097Z,23.10
2019-06-01T04:26:51.133Z,23.10
2019-06-01T04:27:34.831Z,23.09
2019-06-01T04:28:18.561Z,23.10
2019-06-01T04:29:08.689Z,23.09
2019-06-01T04:29:52.199Z,23.10
2019-06-01T04:30:35.873Z,23.10
2019-06-01T04:31:18.997Z,23.09
2019-06-01T04:32:02.871Z,23.10
2019-06-01T04:32:50.370Z,23.10
2019-06-01T04:33:31.703Z,23.09
2019-06-01T04:34:15.407Z,23.09
2019-06-01T04:34:59.286Z,23.09
2019-06-01T04:35:42.229Z,23.08
2019-06-01T04:36:36.377Z,23.08
2019-06-01T04:37:13.704Z,23.08
2019-06-01T04:37:57.091Z,23.07
2019-06-01T04:38:42.471Z,23.08
2019-06-01T04:39:26.014Z,23.07
2019-06-01T04:40:09.511Z,23.07
2019-06-01T04:40:53.146Z,23.06
2019-06-01T04:41:37.143Z,23.06
2019-06-01T04:42:20.497Z,23.05
2019-06-01T04:43:03.915Z,23.07
2019-06-01T04:43:47.392Z,23.06
2019-06-01T04:44:30.556Z,23.06
2019-06-01T04:45:15.566Z,23.05
2019-06-01T04:45:59.712Z,23.03
2019-06-01T04:46:43.062Z,23.04
2019-06-01T04:47:27.015Z,23.05
2019-06-01T04:48:16.614Z,23.03
2019-06-01T04:48:59.780Z,23.04
2019-06-01T04:49:43.991Z,23.05
2019-06-01T04:50:27.546Z,23.05
2019-06-01T04:51:12.124Z,23.05
2019-06-01T04:51:56.644Z,23.05
2019-06-01T04:52:40.623Z,23.05
2019-06-01T04:53:23.869Z,23.05
2019-06-01T04:54:07.423Z,23.05
2019-06-01T04:54:59.175Z,23.05
2019-06-01T04:55:42.928Z,23.04
2019-06-01T04:56:26.557Z,23.06
2019-06-01T04:57:12.942Z,23.07
2019-06-01T04:57:56.123Z,23.07
2019-06-01T04:58:39.972Z,23.07
2019-06-01T04:59:23.383Z,23.08
2019-06-01T05:00:15.292Z,23.07
2019-06-01T05:00:52.688Z,23.08
2019-06-01T05:01:39.485Z,23.07
2019-06-01T05:02:23.696Z,23.08
2019-06-01T05:03:08.743Z,23.08
2019-06-01T05:03:52.021Z,23.09
2019-06-01T05:04:35.129Z,23.09
2019-06-01T05:05:19.409Z,23.09
2019-06-01T05:06:03.191Z,23.08
2019-06-01T05:06:46.216Z,23.07
2019-06-01T05:07:29.944Z,23.07
2019-06-01T05:08:17.050Z,23.07
2019-06-01T05:09:07.232Z,23.07
2019-06-01T05:09:49.564Z,23.07
2019-06-01T05:10:33.042Z,23.07
2019-06-01T05:11:16.118Z,23.07
2019-06-01T05:11:59.682Z,23.07
2019-06-01T05:12:43.296Z,23.08
2019-06-01T05:13:29.209Z,23.07
2019-06-01T05:14:16.337Z,23.06
2019-06-01T05:15:05.462Z,23.07
2019-06-01T05:15:48.215Z,23.07
2019-06-01T05:16:31.455Z,23.06
2019-06-01T05:17:15.111Z,23.06
2019-06-01T05:18:00.143Z,23.05
2019-06-01T05:18:44.202Z,23.05
2019-06-01T05:19:27.586Z,23.06
2019-06-01T05:20:12.536Z,23.05
2019-06-01T05:20:57.742Z,23.03
2019-06-01T05:21:40.786Z,23.03
2019-06-01T05:22:24.388Z,23.02
2019-06-01T05:23:08.554Z,23.01
2019-06-01T05:23:59.652Z,23.01
2019-06-01T05:24:46.547Z,23.01
2019-06-01T05:25:34.416Z,23.00
2019-06-01T05:26:17.842Z,23.00
2019-06-01T05:27:01.892Z,23.00
2019-06-01T05:27:45.615Z,22.99
2019-06-01T05:28:28.699Z,22.99
2019-06-01T05:29:17.808Z,22.99
2019-06-01T05:30:01.458Z,22.98
2019-06-01T05:30:44.549Z,22.97
2019-06-01T05:31:28.445Z,22.98
2019-06-01T05:32:12.632Z,22.98
2019-06-01T05:32:56.004Z,22.98
2019-06-01T05:33:39.981Z,22.98
2019-06-01T05:34:28.166Z,22.98
2019-06-01T05:35:11.781Z,22.97
2019-06-01T05:35:55.228Z,22.97
2019-06-01T05:36:38.820Z,22.96
2019-06-01T05:37:28.046Z,22.98
2019-06-01T05:38:10.081Z,22.99
2019-06-01T05:38:53.861Z,23.00
2019-06-01T05:39:37.123Z,23.00
2019-06-01T05:40:20.397Z,23.00
2019-06-01T05:41:05.832Z,23.00
2019-06-01T05:41:49.170Z,23.00
2019-06-01T05:42:32.718Z,23.01
2019-06-01T05:43:19.252Z,23.00
2019-06-01T05:44:01.137Z,23.00
2019-06-01T05:44:44.521Z,23.02
2019-06-01T05:45:28.310Z,23.00
2019-06-01T05:46:11.857Z,23.00
2019-06-01T05:46:55.447Z,23.01
2019-06-01T05:47:43.370Z,22.99
2019-06-01T05:48:30.721Z,22.98
2019-06-01T05:49:14.767Z,22.97
2019-06-01T05:49:58.599Z,22.96
2019-06-01T05:50:41.919Z,22.94
2019-06-01T05:51:25.354Z,22.93
2019-06-01T05:52:14.475Z,22.93
2019-06-01T05:52:57.651Z,22.93
2019-06-01T05:53:41.458Z,22.92
2019-06-01T05:54:25.024Z,22.91
2019-06-01T05:55:08.615Z,22.92
2019-06-01T05:55:52.121Z,22.90
2019-06-01T05:56:36.048Z,22.89
2019-06-01T05:57:19.469Z,22.90
2019-06-01T05:58:03.153Z,22.89
2019-06-01T05:58:52.453Z,22.89
2019-06-01T05:59:33.485Z,22.88
2019-06-01T06:00:17.201Z,22.89
2019-06-01T06:01:06.266Z,22.88
2019-06-01T06:01:47.325Z,22.91
2019-06-01T06:02:31.119Z,22.91
2019-06-01T06:03:18.031Z,22.91
2019-06-01T06:04:00.181Z,22.92
2019-06-01T06:04:46.538Z,22.93
2019-06-01T06:05:29.976Z,22.91
2019-06-01T06:06:13.753Z,22.92
2019-06-01T06:06:57.230Z,22.92
2019-06-01T06:07:40.450Z,22.92
2019-06-01T06:08:23.554Z,22.92
2019-06-01T06:09:09.022Z,22.93
2019-06-01T06:09:52.750Z,22.93
2019-06-01T06:10:35.985Z,22.93
2019-06-01T06:11:20.930Z,22.93
2019-06-01T06:12:04.891Z,22.93
2019-06-01T06:12:51.216Z,22.93
2019-06-01T06:13:34.727Z,22.92
2019-06-01T06:14:22.666Z,22.92
2019-06-01T06:15:11.520Z,22.91
2019-06-01T06:15:56.922Z,22.91
2019-06-01T06:16:40.725Z,22.90
2019-06-01T06:17:24.491Z,22.91
2019-06-01T06:18:08.595Z,22.92
2019-06-01T06:18:52.183Z,22.91
2019-06-01T06:19:35.326Z,22.91
2019-06-01T06:20:20.212Z,22.91
2019-06-01T06:21:08.229Z,22.90
2019-06-01T06:21:51.293Z,22.89
2019-06-01T06:22:35.245Z,22.91
2019-06-01T06:23:20.601Z,22.90
2019-06-01T06:24:05.494Z,22.89
2019-06-01T06:24:49.513Z,22.90
2019-06-01T06:25:36.572Z,22.90
2019-06-01T06:26:20.091Z,22.90
2019-06-01T06:27:03.928Z,22.90
2019-06-01T06:27:47.689Z,22.91
2019-06-01T06:28:30.462Z,22.91
2019-06-01T06:29:14.718Z,22.91
2019-06-01T06:29:59.603Z,22.90
2019-06-01T06:30:52.081Z,22.90
2019-06-01T06:31:33.980Z,22.90
2019-06-01T06:32:23.459Z,22.91
2019-06-01T06:33:06.436Z,22.91
2019-06-01T06:33:56.547Z,22.91
2019-06-01T06:34:35.720Z,22.91
2019-06-01T06:35:19.506Z,22.92
2019-06-01T06:36:03.377Z,22.93
2019-06-01T06:36:47.285Z,22.93
2019-06-01T06:37:30.609Z,22.95
2019-06-01T06:38:15.687Z,22.93
2019-06-01T06:38:59.791Z,22.93
2019-06-01T06:39:45.575Z,22.92
2019-06-01T06:40:28.451Z,22.92
2019-06-01T06:41:11.807Z,22.92
2019-06-01T06:41:54.510Z,22.92
2019-06-01T06:42:37.913Z,22.91
2019-06-01T06:43:29.754Z,22.91
2019-06-01T06:44:08.624Z,22.92
2019-06-01T06:44:57.953Z,22.91
2019-06-01T06:45:44.341Z,22.90
2019-06-01T06:46:31.573Z,22.90
2019-06-01T06:47:16.429Z,22.91
2019-06-01T06:48:00.472Z,22.90
2019-06-01T06:48:43.755Z,22.91
2019-06-01T06:49:35.489Z,22.90
2019-06-01T06:50:19.879Z,22.90
2019-06-01T06:51:06.062Z,22.91
2019-06-01T06:51:53.002Z,22.91
2019-06-01T06:52:36.444Z,22.91
2019-06-01T06:53:31.803Z,22.93
2019-06-01T06:54:04.695Z,22.93
2019-06-01T06:54:48.144Z,22.95
2019-06-01T06:55:31.334Z,22.95
2019-06-01T06:56:15.706Z,22.95
2019-06-01T06:56:59.187Z,22.95
2019-06-01T06:57:47.077Z,22.95
2019-06-01T06:58:30.689Z,22.95
2019-06-01T06:59:16.121Z,22.95
2019-06-01T06:59:59.304Z,22.96
2019-06-01T07:00:43.063Z,22.95
2019-06-01T07:01:27.062Z,22.95
2019-06-01T07:02:14.984Z,22.96
2019-06-01T07:02:58.498Z,22.95
2019-06-01T07:03:44.336Z,22.96
2019-06-01T07:04:27.583Z,22.96
2019-06-01T07:05:13.989Z,22.96
2019-06-01T07:05:57.451Z,22.97
2019-06-01T07:06:40.125Z,22.98
2019-06-01T07:07:23.875Z,22.96
2019-06-01T07:08:07.191Z,22.97
2019-06-01T07:08:50.233Z,22.97
2019-06-01T07:09:34.148Z,22.97
2019-06-01T07:10:19.801Z,22.96
2019-06-01T07:11:03.308Z,22.96
2019-06-01T07:11:50.246Z,22.95
2019-06-01T07:12:37.032Z,22.95
2019-06-01T07:13:23.373Z,22.93
2019-06-01T07:14:07.090Z,22.94
2019-06-01T07:14:51.106Z,22.94
2019-06-01T07:15:33.805Z,22.93
2019-06-01T07:16:17.595Z,22.93
2019-06-01T07:17:01.168Z,22.92
2019-06-01T07:17:45.938Z,22.92
2019-06-01T07:18:34.065Z,22.90
2019-06-01T07:19:17.623Z,22.90
2019-06-01T07:20:02.924Z,22.89
2019-06-01T07:20:52.195Z,22.89
2019-06-01T07:21:36.228Z,22.89
2019-06-01T07:22:19.735Z,22.88
2019-06-01T07:23:04.008Z,22.88
2019-06-01T07:23:52.557Z,22.89
2019-06-01T07:24:37.175Z,22.89
2019-06-01T07:25:21.814Z,22.88
2019-06-01T07:26:11.754Z,22.87
2019-06-01T07:26:59.913Z,22.88
2019-06-01T07:27:49.354Z,22.87
2019-06-01T07:28:39.433Z,22.85
2019-06-01T07:29:29.220Z,22.85
2019-06-01T07:30:09.812Z,22.85
2019-06-01T07:30:52.979Z,22.84
2019-06-01T07:31:35.871Z,22.83
2019-06-01T07:32:22.063Z,22.83
2019-06-01T07:33:05.636Z,22.83
2019-06-01T07:33:50.818Z,22.82
2019-06-01T07:34:42.280Z,22.84
2019-06-01T07:35:24.295Z,22.85
2019-06-01T07:36:07.792Z,22.84
2019-06-01T07:37:00.543Z,22.84
2019-06-01T07:37:47.486Z,22.84
2019-06-01T07:38:38.543Z,22.83
2019-06-01T07:39:22.725Z,22.84
2019-06-01T07:40:13.704Z,22.84
2019-06-01T07:41:01.115Z,22.84
2019-06-01T07:41:44.884Z,22.84
2019-06-01T07:42:29.408Z,22.84
2019-06-01T07:43:13.179Z,22.85
2019-06-01T07:43:57.055Z,22.87
2019-06-01T07:44:40.190Z,22.88
2019-06-01T07:45:24.837Z,22.89
2019-06-01T07:46:08.303Z,22.90
2019-06-01T07:46:53.115Z,22.92
2019-06-01T07:47:40.724Z,22.91
2019-06-01T07:48:24.997Z,22.93
2019-06-01T07:49:07.882Z,22.92
2019-06-01T07:49:51.279Z,22.93
2019-06-01T07:50:34.721Z,22.94
2019-06-01T07:51:17.337Z,22.94
2019-06-01T07:52:12.225Z,22.94
2019-06-01T07:52:48.307Z,22.94
2019-06-01T07:53:31.555Z,22.95
2019-06-01T07:54:15.399Z,22.95
2019-06-01T07:55:00.242Z,22.95
2019-06-01T07:55:44.045Z,22.96
2019-06-01T07:56:28.688Z,22.96
2019-06-01T07:57:11.946Z,22.97
2019-06-01T07:58:03.237Z,22.99
2019-06-01T07:58:46.627Z,22.98
2019-06-01T07:59:30.555Z,22.99
2019-06-01T08:00:13.445Z,23.00
2019-06-01T08:00:56.781Z,22.97
2019-06-01T08:01:40.320Z,22.99
2019-06-01T08:02:27.902Z,22.99
2019-06-01T08:03:13.695Z,22.99
2019-06-01T08:03:57.734Z,23.01
2019-06-01T08:04:53.395Z,23.03
2019-06-01T08:05:30.178Z,23.03
2019-06-01T08:06:13.515Z,23.03
2019-06-01T08:06:56.852Z,23.03
2019-06-01T08:07:43.731Z,23.06
2019-06-01T08:08:37.996Z,23.06
2019-06-01T08:09:18.089Z,23.07
2019-06-01T08:10:01.725Z,23.07
2019-06-01T08:10:45.723Z,23.07
2019-06-01T08:11:35.969Z,23.07
2019-06-01T08:12:27.711Z,23.06
2019-06-01T08:13:11.337Z,23.06
2019-06-01T08:13:54.089Z,23.06
2019-06-01T08:14:37.563Z,23.05
2019-06-01T08:15:21.727Z,23.05
2019-06-01T08:16:04.649Z,23.03
2019-06-01T08:16:48.378Z,23.04
2019-06-01T08:17:32.308Z,23.03
2019-06-01T08:18:15.681Z,23.05
2019-06-01T08:18:59.499Z,23.05
2019-06-01T08:19:43.445Z,23.05
2019-06-01T08:20:26.481Z,23.05
2019-06-01T08:21:12.119Z,23.06
2019-06-01T08:21:55.719Z,23.06
2019-06-01T08:22:38.806Z,23.07
2019-06-01T08:23:22.570Z,23.07
2019-06-01T08:24:08.535Z,23.07
2019-06-01T08:24:51.237Z,23.07
2019-06-01T08:25:36.275Z,23.06
2019-06-01T08:26:20.667Z,23.07
2019-06-01T08:27:03.589Z,23.08
2019-06-01T08:27:52.937Z,23.08
2019-06-01T08:28:36.144Z,23.10
2019-06-01T08:29:22.707Z,23.10
2019-06-01T08:30:10.232Z,23.11
2019-06-01T08:30:53.814Z,23.12
2019-06-01T08:31:41.279Z,23.14
2019-06-01T08:32:24.624Z,23.15
2019-06-01T08:33:08.223Z,23.15
2019-06-01T08:33:51.099Z,23.16
2019-06-01T08:34:34.362Z,23.17
2019-06-01T08:35:19.881Z,23.16
2019-06-01T08:36:05.496Z,23.17
2019-06-01T08:36:54.685Z,23.15
2019-06-01T08:37:34.677Z,23.15
2019-06-01T08:38:23.330Z,23.15
2019-06-01T08:39:07.682Z,23.14
2019-06-01T08:39:50.973Z,23.15
2019-06-01T08:40:33.699Z,23.14
2019-06-01T08:41:21.439Z,23.15
2019-06-01T08:42:04.961Z,23.14
2019-06-01T08:42:48.378Z,23.15
2019-06-01T08:43:31.890Z,23.15
2019-06-01T08:44:15.365Z,23.15
2019-06-01T08:44:58.304Z,23.15
2019-06-01T08:45:41.642Z,23.15
2019-06-01T08:46:25.578Z,23.14
2019-06-01T08:47:17.851Z,23.13
2019-06-01T08:48:01.118Z,23.13
2019-06-01T08:48:44.748Z,23.12
2019-06-01T08:49:28.043Z,23.14
2019-06-01T08:50:11.836Z,23.13
2019-06-01T08:50:55.436Z,23.13
2019-06-01T08:51:38.591Z,23.13
2019-06-01T08:52:22.050Z,23.12
2019-06-01T08:53:05.701Z,23.13
2019-06-01T08:53:48.565Z,23.11
2019-06-01T08:54:32.310Z,23.12
2019-06-01T08:55:16.271Z,23.13
2019-06-01T08:55:59.248Z,23.13
2019-06-01T08:56:43.229Z,23.14
2019-06-01T08:57:28.274Z,23.13
2019-06-01T08:58:11.492Z,23.12
2019-06-01T08:58:55.009Z,23.13
2019-06-01T08:59:38.718Z,23.12
2019-06-01T09:00:21.957Z,23.11
2019-06-01T09:01:06.358Z,23.12
2019-06-01T09:01:50.436Z,23.11
2019-06-01T09:02:34.848Z,23.11
2019-06-01T09:03:18.836Z,23.10
2019-06-01T09:04:02.532Z,23.10
2019-06-01T09:04:45.498Z,23.09
2019-06-01T09:05:30.331Z,23.08
2019-06-01T09:06:15.290Z,23.08
2019-06-01T09:06:58.726Z,23.09
2019-06-01T09:07:42.690Z,23.10
2019-06-01T09:08:27.180Z,23.10
2019-06-01T09:09:11.866Z,23.11
2019-06-01T09:09:55.395Z,23.11
2019-06-01T09:10:39.202Z,23.12
2019-06-01T09:11:22.090Z,23.11
2019-06-01T09:12:05.519Z,23.11
2019-06-01T09:12:49.182Z,23.12
2019-06-01T09:13:31.894Z,23.14
2019-06-01T09:14:15.370Z,23.15
2019-06-01T09:14:59.022Z,23.15
2019-06-01T09:15:44.096Z,23.15
2019-06-01T09:16:29.676Z,23.15
2019-06-01T09:17:13.083Z,23.15
2019-06-01T09:17:56.431Z,23.16
2019-06-01T09:18:39.795Z,23.16
2019-06-01T09:19:23.572Z,23.16
2019-06-01T09:20:06.460Z,23.16
2019-06-01T09:20:49.803Z,23.18
2019-06-01T09:21:33.606Z,23.17
2019-06-01T09:22:17.078Z,23.16
2019-06-01T09:23:00.348Z,23.15
2019-06-01T09:23:43.759Z,23.15
2019-06-01T09:24:27.665Z,23.14
2019-06-01T09:25:11.863Z,23.14
2019-06-01T09:25:56.419Z,23.13
2019-06-01T09:26:39.461Z,23.14
2019-06-01T09:27:22.743Z,23.13
2019-06-01T09:28:06.083Z,23.13
2019-06-01T09:28:49.303Z,23.14
2019-06-01T09:29:34.071Z,23.13
2019-06-01T09:30:18.111Z,23.15
2019-06-01T09:31:01.544Z,23.13
2019-06-01T09:31:45.119Z,23.13
2019-06-01T09:32:30.031Z,23.13
2019-06-01T09:33:13.554Z,23.13
2019-06-01T09:33:57.116Z,23.13
2019-06-01T09:34:40.951Z,23.13
2019-06-01T09:35:43.090Z,23.12